sensor_id;sensor_type;location;lat;lon;timestamp;temperature;humidity
36556;DHT22;40859;50.560;7.268;2022-11-30T00:01:57;21.20;90.50
36556;DHT22;40859;50.560;7.268;2022-11-30T00:04:23;21.20;90.50
36556;DHT22;40859;50.560;7.268;2022-11-30T00:06:49;21.20;90.50
36556;DHT22;40859;50.560;7.268;2022-11-30T00:09:15;21.20;90.50
36556;DHT22;40859;50.560;7.268;2022-11-30T00:11:41;21.20;90.50
36556;DHT22;40859;50.560;7.268;2022-11-30T00:14:07;21.20;90.40
36556;DHT22;40859;50.560;7.268;2022-11-30T00:16:33;21.20;90.40
36556;DHT22;40859;50.560;7.268;2022-11-30T00:18:58;21.20;90.40
36556;DHT22;40859;50.560;7.268;2022-11-30T00:21:24;21.20;90.40
36556;DHT22;40859;50.560;7.268;2022-11-30T00:23:51;21.20;90.40
36556;DHT22;40859;50.560;7.268;2022-11-30T00:26:17;21.20;90.40
36556;DHT22;40859;50.560;7.268;2022-11-30T00:28:44;21.20;90.40
36556;DHT22;40859;50.560;7.268;2022-11-30T00:31:13;21.20;90.40
36556;DHT22;40859;50.560;7.268;2022-11-30T00:33:39;21.20;90.40
36556;DHT22;40859;50.560;7.268;2022-11-30T00:36:10;21.20;90.40
36556;DHT22;40859;50.560;7.268;2022-11-30T00:38:36;21.20;90.40
36556;DHT22;40859;50.560;7.268;2022-11-30T00:41:02;21.20;90.40
36556;DHT22;40859;50.560;7.268;2022-11-30T00:43:28;21.20;90.40
36556;DHT22;40859;50.560;7.268;2022-11-30T00:45:54;21.20;90.40
36556;DHT22;40859;50.560;7.268;2022-11-30T00:48:21;21.10;90.30
36556;DHT22;40859;50.560;7.268;2022-11-30T00:50:47;21.20;90.40
36556;DHT22;40859;50.560;7.268;2022-11-30T00:53:13;21.20;90.40
36556;DHT22;40859;50.560;7.268;2022-11-30T00:55:39;21.10;90.30
36556;DHT22;40859;50.560;7.268;2022-11-30T00:58:04;21.20;90.40
36556;DHT22;40859;50.560;7.268;2022-11-30T01:00:32;21.20;90.40
36556;DHT22;40859;50.560;7.268;2022-11-30T01:02:57;21.10;90.30
36556;DHT22;40859;50.560;7.268;2022-11-30T01:05:27;21.10;90.30
36556;DHT22;40859;50.560;7.268;2022-11-30T01:07:54;21.10;90.20
36556;DHT22;40859;50.560;7.268;2022-11-30T01:10:19;21.20;90.30
36556;DHT22;40859;50.560;7.268;2022-11-30T01:12:47;21.20;90.30
36556;DHT22;40859;50.560;7.268;2022-11-30T01:15:14;21.20;90.30
36556;DHT22;40859;50.560;7.268;2022-11-30T01:17:39;21.10;90.30
36556;DHT22;40859;50.560;7.268;2022-11-30T01:20:05;21.10;90.20
36556;DHT22;40859;50.560;7.268;2022-11-30T01:22:32;21.10;90.20
36556;DHT22;40859;50.560;7.268;2022-11-30T01:24:58;21.10;90.20
36556;DHT22;40859;50.560;7.268;2022-11-30T01:27:24;21.10;90.20
36556;DHT22;40859;50.560;7.268;2022-11-30T01:29:50;21.10;90.20
36556;DHT22;40859;50.560;7.268;2022-11-30T01:32:15;21.10;90.10
36556;DHT22;40859;50.560;7.268;2022-11-30T01:34:41;21.10;89.10
36556;DHT22;40859;50.560;7.268;2022-11-30T01:37:08;21.10;89.80
36556;DHT22;40859;50.560;7.268;2022-11-30T01:39:34;21.00;90.00
36556;DHT22;40859;50.560;7.268;2022-11-30T01:42:00;21.10;90.20
36556;DHT22;40859;50.560;7.268;2022-11-30T01:44:56;21.10;90.20
36556;DHT22;40859;50.560;7.268;2022-11-30T01:47:56;21.10;90.20
36556;DHT22;40859;50.560;7.268;2022-11-30T01:50:26;21.10;90.20
36556;DHT22;40859;50.560;7.268;2022-11-30T01:52:55;21.10;90.20
36556;DHT22;40859;50.560;7.268;2022-11-30T01:55:26;21.10;90.20
36556;DHT22;40859;50.560;7.268;2022-11-30T01:57:55;21.10;90.20
36556;DHT22;40859;50.560;7.268;2022-11-30T02:00:23;21.10;90.20
36556;DHT22;40859;50.560;7.268;2022-11-30T02:02:52;21.10;90.20
36556;DHT22;40859;50.560;7.268;2022-11-30T02:05:20;21.10;90.10
36556;DHT22;40859;50.560;7.268;2022-11-30T02:07:47;21.10;90.10
36556;DHT22;40859;50.560;7.268;2022-11-30T02:15:59;21.10;90.20
36556;DHT22;40859;50.560;7.268;2022-11-30T02:18:36;21.10;90.10
36556;DHT22;40859;50.560;7.268;2022-11-30T02:21:05;21.10;90.10
36556;DHT22;40859;50.560;7.268;2022-11-30T02:23:59;21.10;90.10
36556;DHT22;40859;50.560;7.268;2022-11-30T02:26:52;21.10;90.50
36556;DHT22;40859;50.560;7.268;2022-11-30T02:33:20;21.10;90.10
36556;DHT22;40859;50.560;7.268;2022-11-30T02:35:49;21.10;90.10
36556;DHT22;40859;50.560;7.268;2022-11-30T02:38:22;21.10;90.10
36556;DHT22;40859;50.560;7.268;2022-11-30T02:40:49;21.10;90.10
36556;DHT22;40859;50.560;7.268;2022-11-30T02:43:15;21.10;90.10
36556;DHT22;40859;50.560;7.268;2022-11-30T02:46:24;21.10;90.10
36556;DHT22;40859;50.560;7.268;2022-11-30T02:49:45;21.10;90.10
36556;DHT22;40859;50.560;7.268;2022-11-30T02:52:15;21.10;90.10
36556;DHT22;40859;50.560;7.268;2022-11-30T02:54:44;21.10;90.10
36556;DHT22;40859;50.560;7.268;2022-11-30T02:57:10;21.10;90.10
36556;DHT22;40859;50.560;7.268;2022-11-30T02:59:37;21.10;90.50
36556;DHT22;40859;50.560;7.268;2022-11-30T03:02:03;21.10;90.10
36556;DHT22;40859;50.560;7.268;2022-11-30T03:04:29;21.00;90.00
36556;DHT22;40859;50.560;7.268;2022-11-30T03:06:55;21.00;90.50
36556;DHT22;40859;50.560;7.268;2022-11-30T03:09:21;21.10;90.10
36556;DHT22;40859;50.560;7.268;2022-11-30T03:11:47;21.00;90.00
36556;DHT22;40859;50.560;7.268;2022-11-30T03:14:14;21.10;90.00
36556;DHT22;40859;50.560;7.268;2022-11-30T03:16:40;21.10;90.00
36556;DHT22;40859;50.560;7.268;2022-11-30T03:19:06;21.10;90.00
36556;DHT22;40859;50.560;7.268;2022-11-30T03:21:31;21.10;90.10
36556;DHT22;40859;50.560;7.268;2022-11-30T03:23:57;21.10;90.00
36556;DHT22;40859;50.560;7.268;2022-11-30T03:26:23;21.00;90.30
36556;DHT22;40859;50.560;7.268;2022-11-30T03:28:49;21.10;90.00
36556;DHT22;40859;50.560;7.268;2022-11-30T03:31:15;21.10;90.00
36556;DHT22;40859;50.560;7.268;2022-11-30T03:33:42;21.10;90.00
36556;DHT22;40859;50.560;7.268;2022-11-30T03:36:09;21.00;90.00
36556;DHT22;40859;50.560;7.268;2022-11-30T03:38:36;21.00;90.00
36556;DHT22;40859;50.560;7.268;2022-11-30T03:41:11;21.00;90.00
36556;DHT22;40859;50.560;7.268;2022-11-30T03:43:39;21.00;90.00
36556;DHT22;40859;50.560;7.268;2022-11-30T03:46:05;21.00;90.00
36556;DHT22;40859;50.560;7.268;2022-11-30T03:48:31;21.00;90.00
36556;DHT22;40859;50.560;7.268;2022-11-30T03:50:57;21.00;90.00
36556;DHT22;40859;50.560;7.268;2022-11-30T03:53:24;21.00;90.00
36556;DHT22;40859;50.560;7.268;2022-11-30T03:55:55;21.00;90.00
36556;DHT22;40859;50.560;7.268;2022-11-30T03:58:23;21.00;90.00
36556;DHT22;40859;50.560;7.268;2022-11-30T04:00:49;21.00;90.00
36556;DHT22;40859;50.560;7.268;2022-11-30T04:03:16;21.00;90.00
36556;DHT22;40859;50.560;7.268;2022-11-30T04:05:42;21.00;90.00
36556;DHT22;40859;50.560;7.268;2022-11-30T04:08:08;21.00;90.00
36556;DHT22;40859;50.560;7.268;2022-11-30T04:10:34;21.00;90.00
36556;DHT22;40859;50.560;7.268;2022-11-30T04:13:00;21.00;90.00
36556;DHT22;40859;50.560;7.268;2022-11-30T04:15:26;21.00;90.00
36556;DHT22;40859;50.560;7.268;2022-11-30T04:17:51;21.00;90.00
36556;DHT22;40859;50.560;7.268;2022-11-30T04:20:17;21.00;90.00
36556;DHT22;40859;50.560;7.268;2022-11-30T04:22:43;21.00;90.00
36556;DHT22;40859;50.560;7.268;2022-11-30T04:25:08;21.00;90.00
36556;DHT22;40859;50.560;7.268;2022-11-30T04:27:34;21.00;90.00
36556;DHT22;40859;50.560;7.268;2022-11-30T04:30:00;21.00;90.00
36556;DHT22;40859;50.560;7.268;2022-11-30T04:32:26;21.00;90.30
36556;DHT22;40859;50.560;7.268;2022-11-30T04:34:51;21.00;90.00
36556;DHT22;40859;50.560;7.268;2022-11-30T04:37:17;21.00;90.00
36556;DHT22;40859;50.560;7.268;2022-11-30T04:39:43;21.00;89.60
36556;DHT22;40859;50.560;7.268;2022-11-30T04:42:09;21.00;89.90
36556;DHT22;40859;50.560;7.268;2022-11-30T04:44:35;21.00;90.00
36556;DHT22;40859;50.560;7.268;2022-11-30T04:47:01;21.00;90.00
36556;DHT22;40859;50.560;7.268;2022-11-30T04:49:27;20.90;90.00
36556;DHT22;40859;50.560;7.268;2022-11-30T04:51:53;21.00;90.00
36556;DHT22;40859;50.560;7.268;2022-11-30T04:54:19;21.00;90.00
36556;DHT22;40859;50.560;7.268;2022-11-30T04:56:45;21.00;90.00
36556;DHT22;40859;50.560;7.268;2022-11-30T04:59:10;21.00;90.00
36556;DHT22;40859;50.560;7.268;2022-11-30T05:01:36;21.00;90.00
36556;DHT22;40859;50.560;7.268;2022-11-30T05:04:02;21.00;90.00
36556;DHT22;40859;50.560;7.268;2022-11-30T05:06:28;21.00;90.00
36556;DHT22;40859;50.560;7.268;2022-11-30T05:08:54;21.00;90.00
36556;DHT22;40859;50.560;7.268;2022-11-30T05:11:20;21.00;90.00
36556;DHT22;40859;50.560;7.268;2022-11-30T05:13:46;21.00;90.00
36556;DHT22;40859;50.560;7.268;2022-11-30T05:16:12;21.00;90.00
36556;DHT22;40859;50.560;7.268;2022-11-30T05:18:38;21.00;90.00
36556;DHT22;40859;50.560;7.268;2022-11-30T05:21:04;21.00;90.00
36556;DHT22;40859;50.560;7.268;2022-11-30T05:23:31;21.00;90.00
36556;DHT22;40859;50.560;7.268;2022-11-30T05:25:59;21.00;90.10
36556;DHT22;40859;50.560;7.268;2022-11-30T05:28:26;21.00;90.00
36556;DHT22;40859;50.560;7.268;2022-11-30T05:30:51;21.00;90.00
36556;DHT22;40859;50.560;7.268;2022-11-30T05:33:18;21.00;90.00
36556;DHT22;40859;50.560;7.268;2022-11-30T05:35:43;21.00;90.00
36556;DHT22;40859;50.560;7.268;2022-11-30T05:38:09;21.00;90.00
36556;DHT22;40859;50.560;7.268;2022-11-30T05:40:35;21.00;90.00
36556;DHT22;40859;50.560;7.268;2022-11-30T05:43:01;21.00;90.00
36556;DHT22;40859;50.560;7.268;2022-11-30T05:45:29;21.00;90.00
36556;DHT22;40859;50.560;7.268;2022-11-30T05:47:55;21.00;90.00
36556;DHT22;40859;50.560;7.268;2022-11-30T05:50:21;21.00;90.00
36556;DHT22;40859;50.560;7.268;2022-11-30T05:52:48;21.00;90.00
36556;DHT22;40859;50.560;7.268;2022-11-30T05:55:14;21.00;90.00
36556;DHT22;40859;50.560;7.268;2022-11-30T05:57:43;21.00;90.00
36556;DHT22;40859;50.560;7.268;2022-11-30T06:00:09;21.00;90.00
36556;DHT22;40859;50.560;7.268;2022-11-30T06:02:35;21.00;89.90
36556;DHT22;40859;50.560;7.268;2022-11-30T06:05:00;21.00;89.80
36556;DHT22;40859;50.560;7.268;2022-11-30T06:07:26;21.00;89.80
36556;DHT22;40859;50.560;7.268;2022-11-30T06:09:53;21.00;89.80
36556;DHT22;40859;50.560;7.268;2022-11-30T06:12:18;21.00;89.70
36556;DHT22;40859;50.560;7.268;2022-11-30T06:14:44;21.00;89.70
36556;DHT22;40859;50.560;7.268;2022-11-30T06:17:09;21.00;89.70
36556;DHT22;40859;50.560;7.268;2022-11-30T06:19:35;21.00;89.70
36556;DHT22;40859;50.560;7.268;2022-11-30T06:22:01;21.00;89.60
36556;DHT22;40859;50.560;7.268;2022-11-30T06:24:26;21.00;90.10
36556;DHT22;40859;50.560;7.268;2022-11-30T06:26:52;21.00;89.60
36556;DHT22;40859;50.560;7.268;2022-11-30T06:29:18;21.00;89.60
36556;DHT22;40859;50.560;7.268;2022-11-30T06:31:44;21.00;89.60
36556;DHT22;40859;50.560;7.268;2022-11-30T06:34:09;21.00;89.50
36556;DHT22;40859;50.560;7.268;2022-11-30T06:36:35;21.10;89.50
36556;DHT22;40859;50.560;7.268;2022-11-30T06:39:01;21.10;89.50
36556;DHT22;40859;50.560;7.268;2022-11-30T06:41:27;21.10;89.50
36556;DHT22;40859;50.560;7.268;2022-11-30T06:43:53;21.00;89.40
36556;DHT22;40859;50.560;7.268;2022-11-30T06:46:18;21.00;89.40
36556;DHT22;40859;50.560;7.268;2022-11-30T06:48:47;21.00;89.30
36556;DHT22;40859;50.560;7.268;2022-11-30T06:51:13;21.00;89.30
36556;DHT22;40859;50.560;7.268;2022-11-30T06:53:40;21.00;89.40
36556;DHT22;40859;50.560;7.268;2022-11-30T06:56:07;21.00;89.30
36556;DHT22;40859;50.560;7.268;2022-11-30T06:58:33;21.00;89.30
36556;DHT22;40859;50.560;7.268;2022-11-30T07:01:00;21.00;89.20
36556;DHT22;40859;50.560;7.268;2022-11-30T07:03:25;21.00;89.20
36556;DHT22;40859;50.560;7.268;2022-11-30T07:05:51;21.00;89.20
36556;DHT22;40859;50.560;7.268;2022-11-30T07:08:18;21.00;89.20
36556;DHT22;40859;50.560;7.268;2022-11-30T07:10:44;21.00;89.20
36556;DHT22;40859;50.560;7.268;2022-11-30T07:13:11;21.00;89.10
36556;DHT22;40859;50.560;7.268;2022-11-30T07:15:37;21.00;89.10
36556;DHT22;40859;50.560;7.268;2022-11-30T07:18:04;21.00;89.10
36556;DHT22;40859;50.560;7.268;2022-11-30T07:20:29;21.00;89.10
36556;DHT22;40859;50.560;7.268;2022-11-30T07:22:55;21.00;89.00
36556;DHT22;40859;50.560;7.268;2022-11-30T07:25:21;21.00;89.00
36556;DHT22;40859;50.560;7.268;2022-11-30T07:30:34;21.00;88.90
36556;DHT22;40859;50.560;7.268;2022-11-30T07:32:59;21.00;89.00
36556;DHT22;40859;50.560;7.268;2022-11-30T07:35:25;21.00;89.00
36556;DHT22;40859;50.560;7.268;2022-11-30T07:37:51;21.00;89.00
36556;DHT22;40859;50.560;7.268;2022-11-30T07:40:16;21.00;89.00
36556;DHT22;40859;50.560;7.268;2022-11-30T07:42:42;21.00;89.10
36556;DHT22;40859;50.560;7.268;2022-11-30T07:45:08;21.00;89.00
36556;DHT22;40859;50.560;7.268;2022-11-30T07:47:34;21.00;89.00
36556;DHT22;40859;50.560;7.268;2022-11-30T07:50:00;21.00;89.00
36556;DHT22;40859;50.560;7.268;2022-11-30T07:52:26;21.00;89.00
36556;DHT22;40859;50.560;7.268;2022-11-30T07:54:54;21.00;89.00
36556;DHT22;40859;50.560;7.268;2022-11-30T07:57:19;21.00;89.00
36556;DHT22;40859;50.560;7.268;2022-11-30T07:59:45;21.00;89.00
36556;DHT22;40859;50.560;7.268;2022-11-30T08:02:11;21.00;89.10
36556;DHT22;40859;50.560;7.268;2022-11-30T08:04:37;21.00;89.10
36556;DHT22;40859;50.560;7.268;2022-11-30T08:07:03;21.00;89.10
36556;DHT22;40859;50.560;7.268;2022-11-30T08:09:28;21.00;89.10
36556;DHT22;40859;50.560;7.268;2022-11-30T08:11:54;21.00;89.10
36556;DHT22;40859;50.560;7.268;2022-11-30T08:14:20;21.00;89.10
36556;DHT22;40859;50.560;7.268;2022-11-30T08:16:45;21.00;89.10
36556;DHT22;40859;50.560;7.268;2022-11-30T08:19:11;21.00;89.10
36556;DHT22;40859;50.560;7.268;2022-11-30T08:21:37;21.00;89.10
36556;DHT22;40859;50.560;7.268;2022-11-30T08:24:03;21.00;89.20
36556;DHT22;40859;50.560;7.268;2022-11-30T08:26:31;21.10;89.10
36556;DHT22;40859;50.560;7.268;2022-11-30T08:28:57;21.10;89.10
36556;DHT22;40859;50.560;7.268;2022-11-30T08:34:45;21.00;89.10
36556;DHT22;40859;50.560;7.268;2022-11-30T08:37:11;21.00;89.10
36556;DHT22;40859;50.560;7.268;2022-11-30T08:39:37;21.10;89.30
36556;DHT22;40859;50.560;7.268;2022-11-30T08:42:03;21.10;89.10
36556;DHT22;40859;50.560;7.268;2022-11-30T08:44:29;21.10;89.20
36556;DHT22;40859;50.560;7.268;2022-11-30T08:46:55;21.00;89.10
36556;DHT22;40859;50.560;7.268;2022-11-30T08:49:21;21.10;89.10
36556;DHT22;40859;50.560;7.268;2022-11-30T08:51:48;21.00;89.10
36556;DHT22;40859;50.560;7.268;2022-11-30T08:54:14;21.10;89.40
36556;DHT22;40859;50.560;7.268;2022-11-30T08:56:39;21.10;89.20
36556;DHT22;40859;50.560;7.268;2022-11-30T08:59:05;21.10;89.20
36556;DHT22;40859;50.560;7.268;2022-11-30T09:01:31;21.10;89.20
36556;DHT22;40859;50.560;7.268;2022-11-30T09:03:56;21.00;89.10
36556;DHT22;40859;50.560;7.268;2022-11-30T09:06:23;21.10;89.30
36556;DHT22;40859;50.560;7.268;2022-11-30T09:08:50;21.10;89.30
36556;DHT22;40859;50.560;7.268;2022-11-30T09:11:23;21.00;89.20
36556;DHT22;40859;50.560;7.268;2022-11-30T09:13:49;21.10;89.30
36556;DHT22;40859;50.560;7.268;2022-11-30T09:16:16;21.00;89.10
36556;DHT22;40859;50.560;7.268;2022-11-30T09:18:42;21.00;89.10
36556;DHT22;40859;50.560;7.268;2022-11-30T09:21:09;21.00;89.10
36556;DHT22;40859;50.560;7.268;2022-11-30T09:23:35;21.10;89.20
36556;DHT22;40859;50.560;7.268;2022-11-30T09:26:03;21.10;89.20
36556;DHT22;40859;50.560;7.268;2022-11-30T09:28:29;21.10;89.20
36556;DHT22;40859;50.560;7.268;2022-11-30T09:31:04;21.10;89.20
36556;DHT22;40859;50.560;7.268;2022-11-30T09:33:31;21.10;89.30
36556;DHT22;40859;50.560;7.268;2022-11-30T09:35:57;21.10;89.10
36556;DHT22;40859;50.560;7.268;2022-11-30T09:38:23;21.10;89.10
36556;DHT22;40859;50.560;7.268;2022-11-30T09:40:53;21.10;89.10
36556;DHT22;40859;50.560;7.268;2022-11-30T09:46:25;21.00;89.00
36556;DHT22;40859;50.560;7.268;2022-11-30T09:49:10;21.00;89.00
36556;DHT22;40859;50.560;7.268;2022-11-30T09:51:45;21.10;89.00
36556;DHT22;40859;50.560;7.268;2022-11-30T09:54:13;21.10;89.00
36556;DHT22;40859;50.560;7.268;2022-11-30T09:56:39;21.10;89.00
36556;DHT22;40859;50.560;7.268;2022-11-30T09:59:20;21.10;88.90
36556;DHT22;40859;50.560;7.268;2022-11-30T10:01:49;21.10;88.90
36556;DHT22;40859;50.560;7.268;2022-11-30T10:04:20;21.10;88.80
36556;DHT22;40859;50.560;7.268;2022-11-30T10:17:08;21.10;88.70
36556;DHT22;40859;50.560;7.268;2022-11-30T10:27:15;21.10;88.60
36556;DHT22;40859;50.560;7.268;2022-11-30T10:29:41;21.10;88.50
36556;DHT22;40859;50.560;7.268;2022-11-30T10:32:18;21.00;88.60
36556;DHT22;40859;50.560;7.268;2022-11-30T10:34:47;21.10;88.40
36556;DHT22;40859;50.560;7.268;2022-11-30T10:37:27;21.10;88.40
36556;DHT22;40859;50.560;7.268;2022-11-30T10:40:10;21.00;88.40
36556;DHT22;40859;50.560;7.268;2022-11-30T10:42:41;21.10;88.40
36556;DHT22;40859;50.560;7.268;2022-11-30T10:45:10;21.00;88.30
36556;DHT22;40859;50.560;7.268;2022-11-30T10:47:41;21.10;88.30
36556;DHT22;40859;50.560;7.268;2022-11-30T10:50:08;21.00;88.30
36556;DHT22;40859;50.560;7.268;2022-11-30T10:52:40;21.00;88.20
36556;DHT22;40859;50.560;7.268;2022-11-30T10:55:12;21.10;88.40
36556;DHT22;40859;50.560;7.268;2022-11-30T10:57:38;21.00;88.30
36556;DHT22;40859;50.560;7.268;2022-11-30T11:00:04;21.10;88.30
36556;DHT22;40859;50.560;7.268;2022-11-30T11:02:44;21.10;88.20
36556;DHT22;40859;50.560;7.268;2022-11-30T11:05:28;21.10;88.20
36556;DHT22;40859;50.560;7.268;2022-11-30T11:07:58;21.00;88.10
36556;DHT22;40859;50.560;7.268;2022-11-30T11:10:29;21.10;88.20
36556;DHT22;40859;50.560;7.268;2022-11-30T11:12:55;21.10;88.10
36556;DHT22;40859;50.560;7.268;2022-11-30T11:15:22;21.10;88.10
36556;DHT22;40859;50.560;7.268;2022-11-30T11:17:49;21.00;88.10
36556;DHT22;40859;50.560;7.268;2022-11-30T11:24:19;21.10;88.10
36556;DHT22;40859;50.560;7.268;2022-11-30T11:26:50;21.10;88.00
36556;DHT22;40859;50.560;7.268;2022-11-30T11:29:27;21.10;88.00
36556;DHT22;40859;50.560;7.268;2022-11-30T11:34:40;21.10;88.00
36556;DHT22;40859;50.560;7.268;2022-11-30T11:37:29;21.10;88.10
36556;DHT22;40859;50.560;7.268;2022-11-30T11:42:54;21.10;88.10
36556;DHT22;40859;50.560;7.268;2022-11-30T11:45:24;21.10;88.10
36556;DHT22;40859;50.560;7.268;2022-11-30T11:48:00;21.10;88.10
36556;DHT22;40859;50.560;7.268;2022-11-30T11:50:30;21.10;88.10
36556;DHT22;40859;50.560;7.268;2022-11-30T11:55:50;21.10;88.00
36556;DHT22;40859;50.560;7.268;2022-11-30T11:58:18;21.10;88.20
36556;DHT22;40859;50.560;7.268;2022-11-30T12:00:46;21.00;88.20
36556;DHT22;40859;50.560;7.268;2022-11-30T12:03:32;21.00;88.20
36556;DHT22;40859;50.560;7.268;2022-11-30T12:06:01;21.10;88.20
36556;DHT22;40859;50.560;7.268;2022-11-30T12:08:32;21.10;88.30
36556;DHT22;40859;50.560;7.268;2022-11-30T12:14:02;21.00;88.30
36556;DHT22;40859;50.560;7.268;2022-11-30T12:16:36;21.10;88.30
36556;DHT22;40859;50.560;7.268;2022-11-30T12:19:12;21.10;88.30
36556;DHT22;40859;50.560;7.268;2022-11-30T12:21:49;21.10;88.40
36556;DHT22;40859;50.560;7.268;2022-11-30T12:32:09;21.10;88.30
36556;DHT22;40859;50.560;7.268;2022-11-30T12:35:02;21.10;88.20
36556;DHT22;40859;50.560;7.268;2022-11-30T12:42:45;21.10;88.30
36556;DHT22;40859;50.560;7.268;2022-11-30T12:45:18;21.10;88.30
36556;DHT22;40859;50.560;7.268;2022-11-30T12:48:00;21.10;88.50
36556;DHT22;40859;50.560;7.268;2022-11-30T12:50:56;21.10;88.40
36556;DHT22;40859;50.560;7.268;2022-11-30T12:53:33;21.10;88.60
36556;DHT22;40859;50.560;7.268;2022-11-30T13:04:47;21.10;88.70
36556;DHT22;40859;50.560;7.268;2022-11-30T13:15:19;21.10;88.70
36556;DHT22;40859;50.560;7.268;2022-11-30T13:17:46;21.10;88.60
36556;DHT22;40859;50.560;7.268;2022-11-30T13:24:14;21.10;88.50
36556;DHT22;40859;50.560;7.268;2022-11-30T13:26:43;21.10;88.30
36556;DHT22;40859;50.560;7.268;2022-11-30T13:34:34;21.10;88.00
36556;DHT22;40859;50.560;7.268;2022-11-30T13:37:01;21.10;87.70
36556;DHT22;40859;50.560;7.268;2022-11-30T13:43:34;21.10;87.70
36556;DHT22;40859;50.560;7.268;2022-11-30T13:46:14;21.10;87.70
36556;DHT22;40859;50.560;7.268;2022-11-30T13:48:41;21.10;87.70
36556;DHT22;40859;50.560;7.268;2022-11-30T13:51:08;21.10;87.80
36556;DHT22;40859;50.560;7.268;2022-11-30T13:53:35;21.10;87.90
36556;DHT22;40859;50.560;7.268;2022-11-30T13:56:05;21.10;87.90
36556;DHT22;40859;50.560;7.268;2022-11-30T13:58:33;21.10;87.90
36556;DHT22;40859;50.560;7.268;2022-11-30T14:03:33;21.10;88.00
36556;DHT22;40859;50.560;7.268;2022-11-30T14:06:00;21.10;88.10
36556;DHT22;40859;50.560;7.268;2022-11-30T14:08:31;21.10;88.10
36556;DHT22;40859;50.560;7.268;2022-11-30T14:16:55;21.10;88.30
36556;DHT22;40859;50.560;7.268;2022-11-30T14:19:21;21.10;88.30
36556;DHT22;40859;50.560;7.268;2022-11-30T14:21:47;21.10;88.40
36556;DHT22;40859;50.560;7.268;2022-11-30T14:24:15;21.10;88.40
36556;DHT22;40859;50.560;7.268;2022-11-30T14:26:43;21.10;88.50
36556;DHT22;40859;50.560;7.268;2022-11-30T14:29:13;21.10;88.60
36556;DHT22;40859;50.560;7.268;2022-11-30T14:31:47;21.10;88.60
36556;DHT22;40859;50.560;7.268;2022-11-30T14:38:27;21.10;88.60
36556;DHT22;40859;50.560;7.268;2022-11-30T14:40:56;21.10;88.70
36556;DHT22;40859;50.560;7.268;2022-11-30T14:43:22;21.10;88.80
36556;DHT22;40859;50.560;7.268;2022-11-30T14:45:58;21.10;88.80
36556;DHT22;40859;50.560;7.268;2022-11-30T14:48:24;21.10;88.80
36556;DHT22;40859;50.560;7.268;2022-11-30T14:50:52;21.10;88.80
36556;DHT22;40859;50.560;7.268;2022-11-30T14:59:42;21.10;88.90
36556;DHT22;40859;50.560;7.268;2022-11-30T15:02:22;21.10;88.90
36556;DHT22;40859;50.560;7.268;2022-11-30T15:04:49;21.10;89.00
36556;DHT22;40859;50.560;7.268;2022-11-30T15:07:16;21.10;89.00
36556;DHT22;40859;50.560;7.268;2022-11-30T15:09:43;21.10;89.10
36556;DHT22;40859;50.560;7.268;2022-11-30T15:12:09;21.10;89.10
36556;DHT22;40859;50.560;7.268;2022-11-30T15:14:35;21.10;89.10
36556;DHT22;40859;50.560;7.268;2022-11-30T15:17:00;21.10;89.10
36556;DHT22;40859;50.560;7.268;2022-11-30T15:19:27;21.10;89.20
36556;DHT22;40859;50.560;7.268;2022-11-30T15:21:54;21.10;89.10
36556;DHT22;40859;50.560;7.268;2022-11-30T15:24:20;21.10;89.30
36556;DHT22;40859;50.560;7.268;2022-11-30T15:26:51;21.10;89.40
36556;DHT22;40859;50.560;7.268;2022-11-30T15:29:31;21.10;89.30
36556;DHT22;40859;50.560;7.268;2022-11-30T15:31:59;21.10;89.30
36556;DHT22;40859;50.560;7.268;2022-11-30T15:37:33;21.10;89.30
36556;DHT22;40859;50.560;7.268;2022-11-30T15:40:00;21.20;89.50
36556;DHT22;40859;50.560;7.268;2022-11-30T15:42:28;21.10;89.30
36556;DHT22;40859;50.560;7.268;2022-11-30T15:45:06;21.20;89.40
36556;DHT22;40859;50.560;7.268;2022-11-30T15:50:36;21.20;89.40
36556;DHT22;40859;50.560;7.268;2022-11-30T15:56:06;21.10;89.50
36556;DHT22;40859;50.560;7.268;2022-11-30T16:07:47;21.10;89.50
36556;DHT22;40859;50.560;7.268;2022-11-30T16:10:15;21.10;89.60
36556;DHT22;40859;50.560;7.268;2022-11-30T16:12:42;21.10;89.60
36556;DHT22;40859;50.560;7.268;2022-11-30T16:18:12;21.10;89.70
36556;DHT22;40859;50.560;7.268;2022-11-30T16:20:40;21.10;89.80
36556;DHT22;40859;50.560;7.268;2022-11-30T16:23:13;21.10;89.70
36556;DHT22;40859;50.560;7.268;2022-11-30T16:25:40;21.20;89.80
36556;DHT22;40859;50.560;7.268;2022-11-30T16:28:10;21.10;89.70
36556;DHT22;40859;50.560;7.268;2022-11-30T16:30:36;21.10;89.70
36556;DHT22;40859;50.560;7.268;2022-11-30T16:33:02;21.20;89.80
36556;DHT22;40859;50.560;7.268;2022-11-30T16:38:30;21.10;89.80
36556;DHT22;40859;50.560;7.268;2022-11-30T16:41:08;21.20;89.90
36556;DHT22;40859;50.560;7.268;2022-11-30T16:43:34;21.10;89.80
36556;DHT22;40859;50.560;7.268;2022-11-30T16:46:03;21.10;89.80
36556;DHT22;40859;50.560;7.268;2022-11-30T16:48:29;21.20;90.00
36556;DHT22;40859;50.560;7.268;2022-11-30T16:50:55;21.20;90.00
36556;DHT22;40859;50.560;7.268;2022-11-30T16:53:21;21.20;90.00
36556;DHT22;40859;50.560;7.268;2022-11-30T16:55:46;21.20;90.00
36556;DHT22;40859;50.560;7.268;2022-11-30T16:58:12;21.20;90.00
36556;DHT22;40859;50.560;7.268;2022-11-30T17:00:39;21.20;90.00
36556;DHT22;40859;50.560;7.268;2022-11-30T17:03:38;21.20;90.00
36556;DHT22;40859;50.560;7.268;2022-11-30T17:06:04;21.10;90.40
36556;DHT22;40859;50.560;7.268;2022-11-30T17:08:33;21.20;90.00
36556;DHT22;40859;50.560;7.268;2022-11-30T17:14:02;21.20;90.00
36556;DHT22;40859;50.560;7.268;2022-11-30T17:16:28;21.20;90.10
36556;DHT22;40859;50.560;7.268;2022-11-30T17:18:54;21.20;90.00
36556;DHT22;40859;50.560;7.268;2022-11-30T17:21:34;21.20;90.10
36556;DHT22;40859;50.560;7.268;2022-11-30T17:24:00;21.20;90.10
36556;DHT22;40859;50.560;7.268;2022-11-30T17:26:26;21.20;90.10
36556;DHT22;40859;50.560;7.268;2022-11-30T17:28:52;21.20;90.10
36556;DHT22;40859;50.560;7.268;2022-11-30T17:31:18;21.20;90.10
36556;DHT22;40859;50.560;7.268;2022-11-30T17:33:43;21.20;90.10
36556;DHT22;40859;50.560;7.268;2022-11-30T17:36:10;21.20;90.10
36556;DHT22;40859;50.560;7.268;2022-11-30T17:38:36;21.20;90.10
36556;DHT22;40859;50.560;7.268;2022-11-30T17:41:06;21.20;90.00
36556;DHT22;40859;50.560;7.268;2022-11-30T17:43:32;21.20;90.10
36556;DHT22;40859;50.560;7.268;2022-11-30T17:46:02;21.20;90.10
36556;DHT22;40859;50.560;7.268;2022-11-30T17:48:28;21.20;90.20
36556;DHT22;40859;50.560;7.268;2022-11-30T17:50:56;21.20;90.20
36556;DHT22;40859;50.560;7.268;2022-11-30T17:53:22;21.20;90.30
36556;DHT22;40859;50.560;7.268;2022-11-30T17:55:48;21.20;90.30
36556;DHT22;40859;50.560;7.268;2022-11-30T17:58:13;21.20;90.30
36556;DHT22;40859;50.560;7.268;2022-11-30T18:00:39;21.20;90.40